Flight Track Log - Related Links

Times and Time Zones

All times are in EDT time to prevent confusion due to time zone crossing. See the ASQ4253 flight status page for this flight to view local times or setup timezone preferences in your user account.

Time Position Orientation Groundspeed Altitude Reporting Facility
EDT Latitude Longitude Course Direction KTS MPH feet Rate Location/Type
Wed 05:06:00 PM 33.7686 -81.4393 246° West  Level FlightAware Approximate
Wed 05:06:11 PM 33.8769 -81.3467 241° Southwest 273 314 6,800  Level Jacksonville Center
Wed 05:07:00 PM 33.7222 -81.5538 237° Southwest  Level FlightAware Approximate
Wed 05:07:11 PM 33.8361 -81.4250 238° Southwest 286 329 9,700  Level Jacksonville Center
Wed 05:08:00 PM 33.6640 -81.6605 237° Southwest  Level FlightAware Approximate
Wed 05:08:56 PM 33.7764 -81.6022 248° West 316 364 11,600  Level Atlanta Center
Wed 05:09:00 PM 33.6104 -81.7702 243° Southwest  Level FlightAware Approximate
Wed 05:09:56 PM 33.7431 -81.7206 251° West 355 409 13,000  Level Atlanta Center
Wed 05:10:00 PM 33.5587 -81.8778 236° Southwest  Level FlightAware Approximate
Wed 05:10:56 PM 33.7078 -81.8414 251° West 375 432 14,500  Level Atlanta Center
Wed 05:11:56 PM 33.6703 -81.9644 250° West 391 450 15,900 1,450 Climbing Atlanta Center
Wed 05:12:56 PM 33.6325 -82.0878 250° West 391 450 17,400 1,500 Climbing Atlanta Center
Wed 05:13:56 PM 33.5950 -82.2108 250° West 391 450 18,900 1,400 Climbing Atlanta Center
Wed 05:14:56 PM 33.5569 -82.3261 248° West 404 465 20,200 1,350 Climbing Atlanta Center
Wed 05:15:56 PM 33.5167 -82.4492 249° West 409 471 21,600 1,450 Climbing Atlanta Center
Wed 05:16:56 PM 33.4767 -82.5719 249° West 409 471 23,100 1,500 Climbing Atlanta Center
Wed 05:17:56 PM 33.4425 -82.6919 251° West 404 465 24,600 1,450 Climbing Atlanta Center
Wed 05:18:56 PM 33.4042 -82.8144 249° West 391 450 26,000 1,400 Climbing Atlanta Center
Wed 05:19:56 PM 33.3614 -82.9444 249° West 384 442 27,400 1,450 Climbing Atlanta Center
Wed 05:20:56 PM 33.3103 -83.0569 241° Southwest 384 442 28,900 1,500 Climbing Atlanta Center
Wed 05:21:56 PM 33.2589 -83.1719 242° Southwest 394 453 30,400 1,500 Climbing Atlanta Center
Wed 05:22:56 PM 33.1928 -83.2717 232° Southwest 394 453 31,900 1,450 Climbing Atlanta Center
Wed 05:23:56 PM 33.1203 -83.3692 228° Southwest 399 459 33,300 1,350 Climbing Atlanta Center
Wed 05:24:56 PM 33.0497 -83.4464 223° Southwest 392 451 34,600 1,300 Climbing Atlanta Center
Wed 05:25:56 PM 32.9667 -83.5239 218° Southwest 386 444 35,900 700 Climbing Atlanta Center
Wed 05:26:56 PM 32.8814 -83.6036 218° Southwest 386 444 36,000 50 Climbing Atlanta Center
Wed 05:27:56 PM 32.7856 -83.6931 218° Southwest 413 475 36,000  Level Atlanta Center
Wed 05:28:56 PM 32.6856 -83.7847 218° Southwest 440 506 36,000  Level Atlanta Center
Wed 05:29:56 PM 32.5939 -83.8908 224° Southwest 460 529 36,000  Level Atlanta Center
Wed 05:30:56 PM 32.5356 -84.0242 243° Southwest 465 535 36,000  Level Atlanta Center
Wed 05:31:56 PM 32.4833 -84.1594 245° Southwest 459 528 36,000  Level Atlanta Center
Wed 05:32:56 PM 32.4308 -84.2947 245° Southwest 454 522 36,000  Level Atlanta Center
Wed 05:33:56 PM 32.3764 -84.4322 245° Southwest 460 529 36,000  Level Atlanta Center
Wed 05:34:56 PM 32.3194 -84.5722 244° Southwest 465 535 36,000  Level Atlanta Center
Wed 05:35:56 PM 32.2644 -84.7119 245° Southwest 465 535 36,000  Level Atlanta Center
Wed 05:36:56 PM 32.2094 -84.8514 245° Southwest 465 535 36,000  Level Atlanta Center
Wed 05:37:56 PM 32.1519 -84.9883 244° Southwest 465 535 36,000  Level Atlanta Center
Wed 05:38:56 PM 32.0989 -85.1250 245° Southwest 465 535 36,000  Level Atlanta Center
Wed 05:39:56 PM 32.0433 -85.2567 244° Southwest 458 527 36,000  Level Atlanta Center
Wed 05:40:56 PM 31.9856 -85.3906 243° Southwest 458 527 36,000  Level Atlanta Center
Wed 05:41:56 PM 31.9297 -85.5292 245° Southwest 464 534 36,000  Level Atlanta Center
Wed 05:42:56 PM 31.8758 -85.6653 245° Southwest 464 534 36,000  Level Atlanta Center
Wed 05:43:59 PM 31.8111 -85.8214 244° Southwest 472 543 36,000  Level Jacksonville Center
Wed 05:44:59 PM 31.7603 -85.9419 244° Southwest 477 549 36,000  Level Jacksonville Center
Wed 05:45:59 PM 31.7028 -86.0792 244° Southwest 477 549 36,000  Level Jacksonville Center
Wed 05:46:59 PM 31.6469 -86.2139 244° Southwest 472 543 36,000  Level Jacksonville Center
Wed 05:47:59 PM 31.5892 -86.3508 244° Southwest 472 543 36,000  Level Jacksonville Center
Wed 05:48:59 PM 31.5331 -86.4878 244° Southwest 472 543 36,000  Level Jacksonville Center
Wed 05:49:59 PM 31.4750 -86.6219 243° Southwest 467 537 36,000  Level Jacksonville Center
Wed 05:50:59 PM 31.4186 -86.7583 244° Southwest 467 537 36,000  Level Jacksonville Center
Wed 05:53:06 PM 31.3036 -87.0322 244° Southwest 461 531 36,000  Level Houston Center
Wed 05:54:08 PM 31.2447 -87.1656 243° Southwest 462 532 36,000  Level Houston Center
Wed 05:55:10 PM 31.1772 -87.3250 244° Southwest 459 528 36,000  Level Houston Center
Wed 05:56:12 PM 31.1206 -87.4586 244° Southwest 459 528 36,000  Level Houston Center
Wed 05:57:14 PM 31.0625 -87.5917 243° Southwest 460 529 36,000  Level Houston Center
Wed 05:58:16 PM 30.9986 -87.7389 243° Southwest 460 529 36,000  Level Houston Center
Wed 05:59:18 PM 30.9397 -87.8714 243° Southwest 461 531 36,000  Level Houston Center
Wed 06:00:20 PM 30.8817 -88.0039 243° Southwest 461 531 36,000  Level Houston Center
Wed 06:01:22 PM 30.8219 -88.1358 242° Southwest 462 532 36,000  Level Houston Center
Wed 06:02:24 PM 30.7628 -88.2692 243° Southwest 464 534 36,000  Level Houston Center
Wed 06:03:26 PM 30.7008 -88.4239 245° Southwest 459 528 36,000  Level Houston Center
Wed 06:04:28 PM 30.6550 -88.5625 249° West 460 529 36,000  Level Houston Center
Wed 06:05:30 PM 30.6072 -88.7003 248° West 460 529 36,000  Level Houston Center
Wed 06:06:32 PM 30.5592 -88.8375 248° West 460 529 36,000  Level Houston Center
Wed 06:07:34 PM 30.5100 -88.9819 248° West 463 533 36,000  Level Houston Center
Wed 06:08:36 PM 30.4631 -89.1192 248° West 461 531 36,000  Level Houston Center
Wed 06:09:38 PM 30.4153 -89.2572 248° West 461 531 36,000  Level Houston Center
Wed 06:10:40 PM 30.3669 -89.3933 248° West 458 527 36,000  Level Houston Center
Wed 06:11:42 PM 30.3097 -89.5589 248° West 460 529 36,000  Level Houston Center
Wed 06:12:44 PM 30.2583 -89.6964 247° West 458 527 36,000  Level Houston Center
Wed 06:13:46 PM 30.2067 -89.8433 248° West 476 548 36,000  Level Houston Center
Wed 06:14:48 PM 30.1589 -89.9819 248° West 461 531 36,000  Level Houston Center
Wed 06:15:50 PM 30.1097 -90.1181 247° West 459 528 36,000  Level Houston Center
Wed 06:16:52 PM 30.0619 -90.2531 248° West 456 525 36,000  Level Houston Center
Wed 06:17:54 PM 30.0142 -90.3872 248° West 455 524 36,000  Level Houston Center
Wed 06:18:56 PM 29.9642 -90.5222 247° West 458 527 36,000  Level Houston Center
Wed 06:19:58 PM 29.9067 -90.6844 248° West 457 526 36,000 -144 Level Houston Center
Wed 06:21:01 PM 29.8569 -90.8189 247° West 457 526 35,700 -960 Descending Houston Center
Wed 06:22:03 PM 29.8069 -90.9542 247° West 461 531 34,000 -823 Descending Houston Center
Wed 06:23:05 PM 29.7586 -91.0883 247° West 457 526 34,000  Level Houston Center
Wed 06:24:07 PM 29.7086 -91.2233 247° West 459 528 34,000  Level Houston Center
Wed 06:25:09 PM 29.6608 -91.3567 248° West 454 522 34,000 -48 Level Houston Center
Wed 06:26:11 PM 29.6103 -91.5206 251° West 456 525 33,900  Descending Houston Center
Wed 06:27:13 PM 29.5889 -91.6606 260° West 449 517 34,000 48 Climbing Houston Center
Wed 06:28:15 PM 29.5653 -91.8044 259° West 447 514 34,000  Level Houston Center
Wed 06:29:17 PM 29.5419 -91.9439 259° West 446 513 34,000  Level Houston Center
Wed 06:30:19 PM 29.5189 -92.0839 259° West 446 513 34,000  Level Houston Center
Wed 06:31:21 PM 29.4964 -92.2211 259° West 441 507 34,000  Level Houston Center
Wed 06:32:23 PM 29.4733 -92.3606 259° West 444 511 34,000  Level Houston Center
Wed 06:33:26 PM 29.4586 -92.5267 264° West 436 502 34,000  Level Houston Center
Wed 06:34:28 PM 29.4658 -92.6656 273° West 435 501 34,000  Level Houston Center
Wed 06:35:30 PM 29.4719 -92.8047 273° West 435 501 34,000  Level Houston Center
Wed 06:36:32 PM 29.4781 -92.9439 273° West 437 503 34,000 -435 Level Houston Center
Wed 06:37:34 PM 29.4856 -93.0831 274° West 437 503 33,100 -1,355 Descending Houston Center
Wed 06:38:36 PM 29.4903 -93.2239 272° West 441 507 31,200 -2,274 Descending Houston Center
Wed 06:39:38 PM 29.4978 -93.3986 273° West 453 521 28,400 -2,661 Descending Houston Center
Wed 06:40:40 PM 29.5047 -93.5522 273° West 472 543 25,700 -2,565 Descending Houston Center
Wed 06:41:42 PM 29.5100 -93.7036 272° West 476 548 23,100 -2,516 Descending Houston Center
Wed 06:42:44 PM 29.5161 -93.8492 273° West 461 531 20,500 -2,565 Descending Houston Center
Wed 06:43:46 PM 29.5206 -93.9878 272° West 441 507 17,800 -2,516 Descending Houston Center
Wed 06:44:48 PM 29.5261 -94.1211 273° West 421 484 15,300 -2,323 Descending Houston Center
Wed 06:45:50 PM 29.5306 -94.2622 272° West 401 461 13,000 -1,113 Descending Houston Center
Wed 06:46:52 PM 29.5450 -94.3708 279° West 353 406 13,000 -484 Level Houston Center
Wed 06:47:54 PM 29.5875 -94.4694 296° West 348 400 12,000 -1,306 Descending Houston Center
Wed 06:48:56 PM 29.6250 -94.5586 296° West 317 365 10,300 -1,742 Descending Houston Center
Wed 06:49:58 PM 29.6711 -94.6597 298° West 300 345 8,400 -1,403 Descending Houston Center
Wed 06:51:00 PM 29.7372 -94.7139 325° Northwest 293 337 7,400 -968 Descending Houston Center
Wed 06:52:02 PM 29.8144 -94.7150 359° North 288 331 6,400 -977 Descending Houston Center
Wed 06:53:09 PM 29.9042 -94.7308 351° North 263 303 5,300 -919 Descending Houston Center
Wed 06:54:06 PM 29.9489 -94.7697 323° Northwest 266 306 4,500 -1,026 Descending Houston Center
Wed 06:55:06 PM 29.9778 -94.8639 290° West 275 316 3,300 -843 Descending Houston Center
Wed 06:56:07 PM 29.9772 -94.9461 270° West 243 280 2,800 -576 Descending Houston Center
Wed 06:57:11 PM 29.9781 -95.0194 271° West 242 278 2,100 -390 Descending Houston Center
Wed 06:58:10 PM 29.9775 -95.0836 269° West 184 212 2,000  Descending Houston Center
Wed 06:59:23 PM 29.9783 -95.1606 271° West 198 228 2,100 82 Climbing Houston Center

Login

Don't have an account? Register now (free) for customized features, flight alerts, and more!